createdAt,value
2022-09-14T00:00:00.093Z,85.17
2022-09-14T00:01:23.726Z,84.97
2022-09-14T00:02:01.290Z,84.67
2022-09-14T00:03:00.087Z,84.97
2022-09-14T00:04:00.184Z,85.48
2022-09-14T00:05:00.066Z,85.78
2022-09-14T00:06:00.020Z,85.78
2022-09-14T00:07:00.968Z,85.48
2022-09-14T00:07:59.959Z,85.48
2022-09-14T00:08:59.950Z,85.17
2022-09-14T00:10:00.045Z,84.61
2022-09-14T00:10:59.985Z,84.20
2022-09-14T00:11:59.899Z,84.91
2022-09-14T00:13:00.113Z,85.21
2022-09-14T00:13:59.844Z,85.31
2022-09-14T00:15:00.003Z,85.82
2022-09-14T00:15:59.862Z,85.42
2022-09-14T00:16:59.906Z,85.93
2022-09-14T00:17:59.847Z,86.22
2022-09-14T00:18:59.987Z,86.02
2022-09-14T00:20:00.023Z,86.22
2022-09-14T00:20:59.875Z,86.13
2022-09-14T00:22:00.001Z,85.42
2022-09-14T00:22:59.806Z,85.62
2022-09-14T00:23:59.924Z,85.52
2022-09-14T00:24:59.734Z,85.82
2022-09-14T00:25:59.800Z,85.52
2022-09-14T00:26:59.787Z,85.82
2022-09-14T00:27:59.797Z,86.02
2022-09-14T00:28:59.893Z,86.07
2022-09-14T00:29:59.792Z,86.07
2022-09-14T00:30:59.880Z,85.86
2022-09-14T00:31:59.851Z,86.16
2022-09-14T00:32:59.685Z,86.43
2022-09-14T00:34:00.709Z,86.37
2022-09-14T00:34:59.869Z,85.96
2022-09-14T00:35:59.710Z,86.07
2022-09-14T00:36:59.837Z,86.57
2022-09-14T00:37:59.683Z,86.27
2022-09-14T00:38:59.585Z,86.57
2022-09-14T00:39:59.616Z,86.57
2022-09-14T00:40:59.562Z,86.37
2022-09-14T00:41:59.814Z,86.37
2022-09-14T00:42:59.608Z,86.16
2022-09-14T00:43:59.811Z,86.27
2022-09-14T00:44:59.527Z,86.41
2022-09-14T00:45:59.667Z,86.47
2022-09-14T00:46:59.552Z,86.37
2022-09-14T00:47:59.564Z,86.31
2022-09-14T00:48:59.531Z,86.37
2022-09-14T00:49:59.540Z,86.16
2022-09-14T00:50:59.569Z,86.61
2022-09-14T00:52:00.496Z,86.31
2022-09-14T00:52:59.529Z,86.61
2022-09-14T00:53:59.528Z,86.41
2022-09-14T00:54:59.396Z,86.51
2022-09-14T00:55:59.409Z,87.02
2022-09-14T00:56:59.505Z,87.02
2022-09-14T00:58:00.484Z,86.61
2022-09-14T00:58:59.809Z,86.25
2022-09-14T00:59:59.523Z,86.15
2022-09-14T01:00:59.485Z,86.25
2022-09-14T01:01:59.442Z,86.25
2022-09-14T01:02:59.533Z,86.65
2022-09-14T01:03:59.407Z,86.35
2022-09-14T01:04:59.493Z,86.35
2022-09-14T01:05:59.424Z,86.05
2022-09-14T01:06:59.505Z,86.76
2022-09-14T01:07:59.515Z,86.65
2022-09-14T01:08:59.485Z,86.45
2022-09-14T01:09:59.335Z,87.06
2022-09-14T01:10:59.381Z,87.16
2022-09-14T01:11:59.406Z,87.67
2022-09-14T01:12:59.332Z,87.16
2022-09-14T01:13:59.251Z,87.16
2022-09-14T01:14:59.230Z,87.16
2022-09-14T01:15:59.294Z,87.16
2022-09-14T01:16:59.241Z,86.76
2022-09-14T01:17:59.510Z,87.77
2022-09-14T01:18:59.164Z,87.00
2022-09-14T01:19:59.238Z,86.76
2022-09-14T01:20:59.164Z,87.30
2022-09-14T01:21:59.137Z,87.81
2022-09-14T01:22:59.163Z,87.92
2022-09-14T01:23:59.258Z,87.71
2022-09-14T01:24:59.241Z,87.20
2022-09-14T01:25:59.095Z,87.20
2022-09-14T01:26:59.104Z,87.30
2022-09-14T01:27:59.079Z,87.81
2022-09-14T01:28:59.131Z,88.32
2022-09-14T01:29:59.123Z,87.55
2022-09-14T01:30:59.005Z,88.16
2022-09-14T01:31:59.041Z,88.36
2022-09-14T01:32:59.003Z,88.67
2022-09-14T01:33:59.008Z,88.97
2022-09-14T01:34:59.106Z,89.68
2022-09-14T01:35:59.094Z,90.09
2022-09-14T01:36:59.021Z,89.78
2022-09-14T01:37:58.994Z,89.68
2022-09-14T01:38:59.006Z,89.48
2022-09-14T01:39:58.981Z,89.68
2022-09-14T01:40:58.965Z,89.48
2022-09-14T01:41:58.885Z,89.28
2022-09-14T01:42:58.866Z,89.13
2022-09-14T01:43:58.988Z,89.48
2022-09-14T01:56:43.267Z,87.81
2022-09-14T01:57:43.225Z,88.12
2022-09-14T01:58:43.210Z,88.06
2022-09-14T01:59:43.212Z,88.16
2022-09-14T02:00:43.268Z,88.16
2022-09-14T02:01:45.536Z,88.87
2022-09-14T02:02:44.285Z,88.67
2022-09-14T02:03:43.157Z,88.67
2022-09-14T02:04:43.159Z,88.67
2022-09-14T02:05:43.141Z,88.67
2022-09-14T02:06:43.129Z,89.07
2022-09-14T02:07:43.111Z,89.48
2022-09-14T02:08:43.103Z,89.58
2022-09-14T02:09:43.104Z,89.17
2022-09-14T02:10:43.084Z,89.37
2022-09-14T02:11:43.068Z,89.17
2022-09-14T02:12:43.169Z,89.37
2022-09-14T02:13:43.095Z,88.87
2022-09-14T02:14:43.053Z,88.67
2022-09-14T02:15:43.023Z,89.07
2022-09-14T02:16:43.157Z,89.03
2022-09-14T02:17:43.001Z,89.58
2022-09-14T02:18:42.993Z,88.87
2022-09-14T02:19:43.009Z,88.87
2022-09-14T02:20:42.973Z,88.67
2022-09-14T02:21:42.966Z,88.87
2022-09-14T02:22:42.946Z,89.13
2022-09-14T02:23:42.933Z,89.23
2022-09-14T02:24:42.926Z,88.87
2022-09-14T02:25:42.929Z,88.76
2022-09-14T02:26:42.903Z,88.67
2022-09-14T02:27:42.889Z,88.67
2022-09-14T02:28:43.020Z,88.67
2022-09-14T02:29:42.870Z,88.56
2022-09-14T02:30:42.875Z,88.26
2022-09-14T02:31:42.929Z,88.76
2022-09-14T02:32:42.835Z,89.17
2022-09-14T02:33:42.823Z,89.37
2022-09-14T02:34:42.828Z,89.58
2022-09-14T02:35:42.918Z,90.19
2022-09-14T02:36:42.792Z,89.78
2022-09-14T02:37:42.786Z,89.98
2022-09-14T02:38:42.770Z,89.88
2022-09-14T02:39:42.848Z,89.78
2022-09-14T02:40:42.753Z,89.88
2022-09-14T02:41:42.748Z,89.58
2022-09-14T02:42:42.729Z,90.03
2022-09-14T02:43:42.724Z,89.42
2022-09-14T02:44:42.725Z,90.03
2022-09-14T02:45:42.689Z,90.13
2022-09-14T02:46:42.805Z,89.83
2022-09-14T02:47:42.680Z,89.72
2022-09-14T02:48:42.683Z,89.97
2022-09-14T02:49:42.645Z,90.23
2022-09-14T02:50:42.637Z,90.48
2022-09-14T02:51:42.625Z,90.84
2022-09-14T02:52:42.627Z,90.74
2022-09-14T02:53:42.621Z,91.39
2022-09-14T02:54:42.592Z,90.94
2022-09-14T02:55:42.576Z,91.05
2022-09-14T02:56:42.585Z,90.53
2022-09-14T02:57:42.564Z,90.84
2022-09-14T02:58:42.548Z,90.33
2022-09-14T02:59:42.540Z,90.29
2022-09-14T03:00:42.759Z,90.09
2022-09-14T03:01:42.596Z,90.03
2022-09-14T03:02:42.514Z,89.48
2022-09-14T03:03:42.509Z,89.78
2022-09-14T03:04:42.485Z,89.78
2022-09-14T03:05:42.475Z,89.48
2022-09-14T03:06:42.467Z,89.37
2022-09-14T03:07:42.457Z,89.98
2022-09-14T03:08:42.447Z,89.78
2022-09-14T03:09:42.423Z,89.98
2022-09-14T03:10:42.434Z,89.88
2022-09-14T03:11:42.403Z,89.88
2022-09-14T03:12:42.394Z,89.78
2022-09-14T03:13:42.410Z,89.58
2022-09-14T03:14:42.371Z,90.09
2022-09-14T03:15:42.357Z,90.09
2022-09-14T03:16:42.458Z,90.09
2022-09-14T03:17:42.339Z,89.58
2022-09-14T03:18:42.359Z,89.68
2022-09-14T03:19:42.314Z,89.54
2022-09-14T03:20:42.307Z,89.88
2022-09-14T03:21:42.294Z,89.78
2022-09-14T03:22:42.288Z,89.78
2022-09-14T03:23:42.284Z,89.78
2022-09-14T03:24:42.271Z,89.78
2022-09-14T03:25:42.246Z,89.54
2022-09-14T03:26:42.238Z,89.58
2022-09-14T03:27:42.231Z,89.48
2022-09-14T03:28:42.229Z,89.98
2022-09-14T03:29:42.204Z,90.09
2022-09-14T03:30:42.195Z,89.88
2022-09-14T03:31:42.238Z,89.78
2022-09-14T03:32:42.196Z,89.78
2022-09-14T03:33:42.170Z,90.09
2022-09-14T03:34:42.165Z,89.98
2022-09-14T03:35:42.135Z,89.68
2022-09-14T03:36:42.128Z,90.19
2022-09-14T03:37:42.124Z,89.68
2022-09-14T03:38:42.109Z,89.78
2022-09-14T03:39:42.209Z,89.98
2022-09-14T03:40:42.085Z,89.88
2022-09-14T03:41:42.070Z,89.37
2022-09-14T03:42:42.058Z,89.58
2022-09-14T03:43:42.066Z,89.78
2022-09-14T03:44:42.053Z,89.62
2022-09-14T03:45:42.029Z,89.58
2022-09-14T03:46:42.040Z,89.83
2022-09-14T03:47:42.004Z,90.13
2022-09-14T03:48:42.099Z,89.92
2022-09-14T03:49:42.001Z,89.98
2022-09-14T03:50:41.974Z,89.83
2022-09-14T03:51:41.965Z,89.72
2022-09-14T03:52:41.949Z,89.92
2022-09-14T03:53:41.935Z,89.62
2022-09-14T03:54:41.959Z,89.72
2022-09-14T03:55:41.915Z,89.58
2022-09-14T03:56:41.917Z,89.58
2022-09-14T03:57:41.891Z,89.78
2022-09-14T03:58:41.883Z,90.09
2022-09-14T03:59:43.804Z,89.58
2022-09-14T04:00:41.874Z,90.19
2022-09-14T04:01:41.929Z,89.78
2022-09-14T04:02:41.880Z,90.09
2022-09-14T04:03:41.827Z,89.68
2022-09-14T04:04:41.842Z,89.78
2022-09-14T04:05:41.816Z,89.68
2022-09-14T04:06:41.797Z,89.98
2022-09-14T04:07:41.793Z,89.68
2022-09-14T04:08:41.777Z,89.98
2022-09-14T04:09:41.759Z,89.98
2022-09-14T04:10:41.773Z,90.19
2022-09-14T04:11:41.736Z,90.49
2022-09-14T04:12:41.729Z,89.68
2022-09-14T04:13:41.735Z,89.68
2022-09-14T04:14:41.707Z,89.78
2022-09-14T04:15:41.725Z,89.98
2022-09-14T04:16:41.699Z,89.68
2022-09-14T04:17:41.679Z,89.78
2022-09-14T04:18:41.659Z,89.98
2022-09-14T04:19:41.654Z,89.78
2022-09-14T04:20:41.755Z,90.19
2022-09-14T04:21:41.638Z,90.09
2022-09-14T04:22:41.639Z,90.29
2022-09-14T04:24:03.345Z,90.59
2022-09-14T04:24:42.597Z,90.70
2022-09-14T04:25:41.584Z,90.70
2022-09-14T04:26:41.604Z,90.29
2022-09-14T04:27:41.559Z,89.68
2022-09-14T04:28:41.552Z,89.98
2022-09-14T04:29:41.550Z,90.09
2022-09-14T04:30:41.531Z,90.29
2022-09-14T04:31:41.575Z,90.29
2022-09-14T04:32:41.512Z,90.29
2022-09-14T04:33:41.532Z,90.49
2022-09-14T04:34:41.484Z,91.10
2022-09-14T04:35:41.473Z,90.70
2022-09-14T04:36:41.485Z,90.70
2022-09-14T04:37:41.461Z,90.59
2022-09-14T04:38:41.440Z,90.84
2022-09-14T04:39:41.439Z,90.70
2022-09-14T04:40:41.419Z,91.10
2022-09-14T04:41:41.415Z,90.90
2022-09-14T04:42:41.395Z,90.70
2022-09-14T04:43:41.383Z,90.53
2022-09-14T04:44:41.373Z,90.80
2022-09-14T04:45:41.369Z,90.84
2022-09-14T04:46:46.044Z,90.80
2022-09-14T04:47:42.345Z,91.45
2022-09-14T04:48:41.328Z,91.51
2022-09-14T04:49:41.315Z,90.90
2022-09-14T04:50:41.307Z,90.90
2022-09-14T04:51:41.311Z,90.90
2022-09-14T04:52:41.321Z,90.90
2022-09-14T04:53:41.271Z,90.90
2022-09-14T04:54:41.264Z,91.51
2022-09-14T04:55:41.246Z,91.00
2022-09-14T04:56:41.243Z,90.80
2022-09-14T04:57:41.235Z,90.90
2022-09-14T04:58:41.230Z,91.41
2022-09-14T04:59:41.204Z,90.59
2022-09-14T05:00:41.197Z,90.80
2022-09-14T05:01:41.251Z,90.66
2022-09-14T05:02:41.326Z,90.70
2022-09-14T05:03:41.171Z,90.45
2022-09-14T05:04:41.150Z,90.29
2022-09-14T05:05:44.774Z,90.35
2022-09-14T05:06:41.139Z,90.25
2022-09-14T05:07:41.114Z,90.75
2022-09-14T05:08:41.140Z,90.86
2022-09-14T05:09:41.107Z,90.80
2022-09-14T05:10:41.086Z,90.49
2022-09-14T05:11:41.080Z,90.45
2022-09-14T05:12:41.065Z,91.00
2022-09-14T05:13:41.065Z,90.70
2022-09-14T05:14:41.054Z,90.70
2022-09-14T05:15:41.056Z,90.80
2022-09-14T05:16:41.023Z,90.80
2022-09-14T05:17:41.005Z,90.90
2022-09-14T05:18:40.999Z,91.41
2022-09-14T05:19:41.000Z,91.10
2022-09-14T05:20:40.996Z,91.20
2022-09-14T05:21:40.961Z,91.10
2022-09-14T05:22:40.953Z,91.41
2022-09-14T05:23:40.952Z,91.20
2022-09-14T05:24:41.313Z,91.30
2022-09-14T05:25:40.918Z,91.10
2022-09-14T05:26:40.915Z,91.20
2022-09-14T05:27:40.894Z,91.20
2022-09-14T05:28:40.897Z,91.10
2022-09-14T05:29:40.870Z,91.10
2022-09-14T05:30:40.865Z,91.20
2022-09-14T05:31:40.905Z,90.90
2022-09-14T05:32:40.850Z,91.06
2022-09-14T05:33:40.923Z,90.90
2022-09-14T05:34:40.826Z,91.51
2022-09-14T05:35:40.812Z,91.30
2022-09-14T05:36:40.804Z,91.20
2022-09-14T05:37:40.783Z,91.10
2022-09-14T05:38:40.796Z,91.10
2022-09-14T05:39:40.778Z,91.36
2022-09-14T05:40:40.859Z,91.51
2022-09-14T05:41:40.744Z,91.10
2022-09-14T05:42:40.734Z,91.51
2022-09-14T05:43:40.717Z,91.30
2022-09-14T05:44:40.729Z,91.47
2022-09-14T05:45:40.694Z,91.36
2022-09-14T05:46:40.802Z,91.47
2022-09-14T05:47:40.681Z,90.59
2022-09-14T05:48:40.792Z,91.51
2022-09-14T05:49:40.674Z,91.20
2022-09-14T05:50:40.642Z,91.16
2022-09-14T05:51:40.640Z,91.20
2022-09-14T05:52:40.626Z,91.10
2022-09-14T05:53:40.609Z,91.51
2022-09-14T05:54:40.597Z,91.71
2022-09-14T05:55:40.608Z,91.71
2022-09-14T05:56:40.599Z,91.82
2022-09-14T05:57:40.562Z,91.61
2022-09-14T05:58:40.554Z,91.71
2022-09-14T05:59:40.551Z,91.91
2022-09-14T06:00:40.552Z,91.91
2022-09-14T06:01:40.711Z,91.51
2022-09-14T06:02:40.512Z,91.51
2022-09-14T06:03:40.655Z,91.30
2022-09-14T06:04:40.490Z,91.61
2022-09-14T06:05:40.516Z,91.91
2022-09-14T06:06:40.485Z,91.67
2022-09-14T06:07:40.450Z,91.67
2022-09-14T06:08:40.445Z,91.61
2022-09-14T06:09:40.431Z,91.77
2022-09-14T06:10:40.446Z,91.67
2022-09-14T06:11:40.407Z,91.91
2022-09-14T06:12:40.417Z,92.12
2022-09-14T06:13:40.425Z,92.07
2022-09-14T06:14:40.377Z,91.97
2022-09-14T06:17:00.200Z,92.12
2022-09-14T06:18:00.186Z,92.93
2022-09-14T06:19:00.170Z,92.79
2022-09-14T06:20:04.381Z,92.93
2022-09-14T06:21:00.171Z,92.79
2022-09-14T06:22:00.156Z,92.68
2022-09-14T06:23:00.124Z,92.99
2022-09-14T06:24:00.122Z,92.89
2022-09-14T06:25:00.114Z,92.58
2022-09-14T06:26:00.133Z,92.89
2022-09-14T06:27:00.089Z,92.99
2022-09-14T06:28:00.101Z,92.99
2022-09-14T06:29:00.062Z,92.99
2022-09-14T06:30:00.049Z,92.99
2022-09-14T06:31:00.036Z,93.29
2022-09-14T06:32:00.043Z,93.19
2022-09-14T06:33:00.018Z,92.58
2022-09-14T06:34:00.008Z,92.94
2022-09-14T06:34:59.998Z,93.19
2022-09-14T06:36:00.000Z,92.79
2022-09-14T06:36:59.968Z,92.68
2022-09-14T06:37:59.976Z,92.84
2022-09-14T06:38:59.945Z,92.89
2022-09-14T06:39:59.978Z,92.79
2022-09-14T06:40:59.951Z,92.99
2022-09-14T06:41:59.914Z,92.68
2022-09-14T06:42:59.905Z,92.89
2022-09-14T06:43:59.958Z,92.74
2022-09-14T06:44:59.878Z,93.05
2022-09-14T06:45:59.912Z,92.64
2022-09-14T06:46:59.871Z,92.94
2022-09-14T06:47:59.846Z,92.24
2022-09-14T06:48:59.840Z,91.63
2022-09-14T06:49:59.826Z,91.83
2022-09-14T06:50:59.811Z,91.83
2022-09-14T06:51:59.856Z,91.73
2022-09-14T06:52:59.788Z,92.03
2022-09-14T06:53:59.787Z,91.22
2022-09-14T06:54:59.767Z,91.52
2022-09-14T06:55:59.758Z,91.22
2022-09-14T06:56:59.757Z,91.02
2022-09-14T06:57:59.733Z,91.02
2022-09-14T06:58:59.726Z,91.12
2022-09-14T06:59:59.736Z,91.08
2022-09-14T07:00:59.699Z,90.97
2022-09-14T07:01:59.705Z,91.12
2022-09-14T07:02:59.704Z,90.81
2022-09-14T07:03:59.666Z,91.28
2022-09-14T07:04:59.652Z,90.57
2022-09-14T07:05:59.674Z,90.47
2022-09-14T07:06:59.642Z,90.67
2022-09-14T07:07:59.623Z,90.67
2022-09-14T07:08:59.607Z,90.57
2022-09-14T07:09:59.599Z,90.88
2022-09-14T07:10:59.591Z,90.93
2022-09-14T07:11:59.592Z,90.12
2022-09-14T07:12:59.564Z,89.61
2022-09-14T07:13:59.553Z,89.61
2022-09-14T07:14:59.539Z,89.31
2022-09-14T07:15:59.560Z,89.51
2022-09-14T07:16:59.532Z,89.51
2022-09-14T07:17:59.526Z,88.70
2022-09-14T07:18:59.505Z,88.70
2022-09-14T07:19:59.487Z,88.70
2022-09-14T07:21:03.491Z,88.49
2022-09-14T07:22:00.488Z,88.90
2022-09-14T07:22:59.464Z,88.90
2022-09-14T07:23:59.444Z,89.41
2022-09-14T07:24:59.446Z,89.11
2022-09-14T07:25:59.418Z,89.26
2022-09-14T07:26:59.407Z,89.81
2022-09-14T07:27:59.410Z,89.26
2022-09-14T07:28:59.402Z,89.11
2022-09-14T07:29:59.373Z,89.87
2022-09-14T07:30:59.438Z,89.67
2022-09-14T07:31:59.371Z,89.47
2022-09-14T07:32:59.349Z,89.47
2022-09-14T07:33:59.342Z,89.06
2022-09-14T07:34:59.322Z,89.57
2022-09-14T07:35:59.310Z,89.11
2022-09-14T07:36:59.293Z,89.57
2022-09-14T07:37:59.298Z,89.57
2022-09-14T07:38:59.369Z,89.67
2022-09-14T07:39:59.328Z,89.47
2022-09-14T07:40:59.256Z,89.57
2022-09-14T07:41:59.238Z,89.98
2022-09-14T07:42:59.264Z,89.87
2022-09-14T07:43:59.215Z,89.87
2022-09-14T07:44:59.206Z,90.08
2022-09-14T07:45:59.261Z,89.98
2022-09-14T07:46:59.191Z,90.08
2022-09-14T07:47:59.277Z,89.87
2022-09-14T07:48:59.169Z,89.77
2022-09-14T07:49:59.161Z,89.57
2022-09-14T07:50:59.138Z,89.26
2022-09-14T07:51:59.125Z,89.47
2022-09-14T07:52:59.124Z,89.26
2022-09-14T07:53:59.114Z,89.57
2022-09-14T07:54:59.087Z,88.86
2022-09-14T07:55:59.605Z,88.40
2022-09-14T07:57:06.920Z,88.40
2022-09-14T07:57:59.066Z,88.56
2022-09-14T07:59:17.210Z,88.60
2022-09-14T08:00:00.055Z,89.01
2022-09-14T08:00:59.054Z,89.51
2022-09-14T08:01:59.203Z,89.41
2022-09-14T08:02:59.022Z,89.47
2022-09-14T08:04:03.377Z,88.40
2022-09-14T08:04:59.975Z,88.46
2022-09-14T08:05:58.968Z,88.56
2022-09-14T08:06:58.956Z,88.76
2022-09-14T08:07:58.945Z,88.56
2022-09-14T08:08:58.987Z,88.86
2022-09-14T08:09:58.930Z,88.76
2022-09-14T08:10:58.910Z,88.25
2022-09-14T08:11:58.904Z,88.05
2022-09-14T08:12:58.891Z,87.95
2022-09-14T08:13:58.893Z,87.74
2022-09-14T08:14:58.892Z,87.34
2022-09-14T08:15:58.855Z,88.05
2022-09-14T08:16:58.854Z,87.74
2022-09-14T08:17:58.835Z,88.05
2022-09-14T08:18:58.858Z,88.42
2022-09-14T08:19:58.915Z,88.35
2022-09-14T08:20:58.797Z,87.95
2022-09-14T08:21:58.793Z,88.46
2022-09-14T08:22:58.774Z,88.35
2022-09-14T08:23:58.810Z,88.11
2022-09-14T08:24:58.764Z,88.51
2022-09-14T08:25:58.755Z,88.62
2022-09-14T08:26:58.733Z,88.62
2022-09-14T08:27:58.730Z,88.62
2022-09-14T08:28:58.712Z,88.82
2022-09-14T08:29:58.710Z,87.91
2022-09-14T08:30:58.713Z,88.01
2022-09-14T08:31:58.766Z,88.11
2022-09-14T08:33:01.769Z,87.30
2022-09-14T08:33:58.665Z,87.71
2022-09-14T08:34:58.656Z,87.46
2022-09-14T08:35:58.651Z,87.36
2022-09-14T08:36:58.625Z,86.96
2022-09-14T08:37:58.607Z,86.65
2022-09-14T08:38:58.603Z,86.35
2022-09-14T08:39:58.607Z,86.35
2022-09-14T08:40:58.590Z,86.15
2022-09-14T08:41:58.561Z,86.45
2022-09-14T08:42:58.555Z,85.80
2022-09-14T08:43:58.553Z,85.94
2022-09-14T08:44:58.541Z,86.00
2022-09-14T08:45:58.557Z,86.21
2022-09-14T08:46:58.518Z,85.80
2022-09-14T08:47:58.504Z,85.90
2022-09-14T08:48:58.484Z,86.00
2022-09-14T08:49:58.478Z,86.10
2022-09-14T08:50:58.452Z,86.31
2022-09-14T08:51:58.482Z,85.90
2022-09-14T08:52:58.437Z,85.90
2022-09-14T08:53:58.429Z,86.21
2022-09-14T08:54:58.441Z,85.80
2022-09-14T08:55:58.402Z,86.21
2022-09-14T08:56:58.392Z,86.21
2022-09-14T08:57:58.381Z,86.31
2022-09-14T08:58:58.368Z,85.30
2022-09-14T08:59:58.371Z,85.30
2022-09-14T09:00:58.510Z,85.30
2022-09-14T09:01:58.340Z,85.50
2022-09-14T09:02:58.322Z,85.60
2022-09-14T09:03:58.383Z,85.80
2022-09-14T09:04:58.302Z,85.90
2022-09-14T09:05:58.286Z,85.90
2022-09-14T09:06:58.290Z,86.00
2022-09-14T09:07:58.289Z,86.31
2022-09-14T09:08:58.258Z,86.21
2022-09-14T09:09:58.245Z,86.31
2022-09-14T09:10:58.259Z,86.07
2022-09-14T09:11:58.221Z,86.16
2022-09-14T09:12:58.209Z,86.67
2022-09-14T09:13:58.196Z,86.27
2022-09-14T09:14:58.199Z,86.07
2022-09-14T09:15:58.277Z,85.86
2022-09-14T09:16:58.178Z,85.76
2022-09-14T09:17:58.369Z,85.76
2022-09-14T09:18:58.168Z,85.25
2022-09-14T09:19:58.133Z,85.56
2022-09-14T09:20:58.134Z,85.16
2022-09-14T09:21:58.128Z,85.36
2022-09-14T09:22:58.102Z,85.56
2022-09-14T09:23:58.099Z,85.36
2022-09-14T09:24:58.072Z,84.65
2022-09-14T09:25:58.059Z,84.65
2022-09-14T09:26:58.067Z,85.16
2022-09-14T09:27:58.039Z,85.56
2022-09-14T09:28:58.031Z,85.46
2022-09-14T09:29:58.012Z,85.25
2022-09-14T09:30:58.006Z,84.25
2022-09-14T09:31:58.077Z,84.34
2022-09-14T09:32:58.004Z,84.45
2022-09-14T09:33:57.966Z,84.14
2022-09-14T09:34:57.961Z,84.34
2022-09-14T09:35:57.948Z,84.55
2022-09-14T09:36:57.937Z,85.05
2022-09-14T09:37:57.938Z,84.65
2022-09-14T09:39:00.668Z,85.22
2022-09-14T09:39:59.003Z,85.31
2022-09-14T09:40:57.899Z,85.02
2022-09-14T09:41:57.891Z,85.42
2022-09-14T09:42:57.899Z,84.41
2022-09-14T09:43:57.857Z,84.34
2022-09-14T09:45:01.778Z,83.90
2022-09-14T09:45:58.837Z,83.90
2022-09-14T09:46:57.959Z,83.90
2022-09-14T09:47:57.808Z,83.70
2022-09-14T09:48:57.811Z,84.00
2022-09-14T09:49:57.801Z,83.84
2022-09-14T09:50:57.781Z,84.31
2022-09-14T09:51:57.762Z,84.51
2022-09-14T09:52:57.758Z,84.61
2022-09-14T09:53:57.756Z,85.02
2022-09-14T09:54:57.733Z,85.31
2022-09-14T09:55:57.738Z,85.22
2022-09-14T09:56:57.708Z,85.62
2022-09-14T09:57:57.691Z,85.08
2022-09-14T09:58:57.796Z,85.22
2022-09-14T09:59:57.670Z,85.58
2022-09-14T10:00:57.730Z,85.31
2022-09-14T10:01:57.698Z,85.28
2022-09-14T10:02:57.661Z,85.17
2022-09-14T10:03:57.634Z,84.97
2022-09-14T10:04:57.635Z,85.38
2022-09-14T10:05:57.615Z,85.08
2022-09-14T10:06:57.602Z,85.28
2022-09-14T10:07:57.580Z,85.28
2022-09-14T10:08:57.577Z,85.58
2022-09-14T10:09:57.576Z,85.48
2022-09-14T10:10:57.553Z,85.38
2022-09-14T10:11:57.563Z,85.28
2022-09-14T10:12:57.534Z,84.87
2022-09-14T10:13:57.530Z,84.47
2022-09-14T10:14:57.515Z,84.57
2022-09-14T10:15:57.560Z,84.47
2022-09-14T10:16:57.485Z,84.27
2022-09-14T10:17:57.475Z,83.96
2022-09-14T10:18:57.469Z,84.67
2022-09-14T10:19:57.470Z,84.67
2022-09-14T10:20:57.436Z,84.27
2022-09-14T10:21:57.421Z,83.76
2022-09-14T10:22:57.413Z,83.56
2022-09-14T10:23:57.401Z,83.56
2022-09-14T10:24:57.405Z,83.66
2022-09-14T10:25:57.376Z,83.86
2022-09-14T10:26:57.361Z,84.27
2022-09-14T10:27:57.416Z,84.87
2022-09-14T10:28:57.348Z,84.53
2022-09-14T10:29:57.341Z,84.27
2022-09-14T10:30:57.433Z,83.86
2022-09-14T10:31:57.307Z,83.76
2022-09-14T10:32:57.314Z,84.17
2022-09-14T10:33:57.324Z,83.82
2022-09-14T10:34:57.310Z,83.62
2022-09-14T10:35:57.283Z,82.21
2022-09-14T10:36:57.254Z,82.14
2022-09-14T10:37:57.241Z,83.05
2022-09-14T10:38:57.251Z,83.36
2022-09-14T10:39:57.368Z,83.32
2022-09-14T10:40:57.214Z,83.46
2022-09-14T10:41:57.202Z,83.22
2022-09-14T10:42:57.193Z,82.81
2022-09-14T10:43:57.202Z,83.12
2022-09-14T10:44:57.180Z,83.12
2022-09-14T10:45:57.316Z,83.12
2022-09-14T10:47:00.242Z,83.72
2022-09-14T10:47:58.127Z,83.82
2022-09-14T10:48:57.137Z,83.72
2022-09-14T10:49:57.109Z,83.62
2022-09-14T10:50:57.119Z,83.12
2022-09-14T10:51:57.079Z,83.42
2022-09-14T10:52:57.076Z,82.91
2022-09-14T10:53:57.091Z,82.81
2022-09-14T10:54:57.054Z,82.71
2022-09-14T10:55:57.035Z,82.31
2022-09-14T10:56:57.042Z,82.10
2022-09-14T10:57:57.029Z,81.46
2022-09-14T10:58:57.012Z,81.56
2022-09-14T10:59:57.012Z,81.46
2022-09-14T11:00:56.988Z,82.07
2022-09-14T11:01:57.141Z,81.80
2022-09-14T11:02:57.059Z,81.80
2022-09-14T11:03:57.015Z,81.76
2022-09-14T11:04:56.937Z,82.27
2022-09-14T11:05:57.129Z,82.27
2022-09-14T11:06:56.927Z,82.47
2022-09-14T11:07:56.895Z,82.07
2022-09-14T11:08:56.892Z,82.07
2022-09-14T11:09:56.890Z,81.67
2022-09-14T11:10:56.869Z,81.46
2022-09-14T11:11:56.863Z,82.17
2022-09-14T11:12:56.882Z,81.76
2022-09-14T11:13:56.832Z,81.67
2022-09-14T11:14:56.822Z,81.93
2022-09-14T11:15:56.971Z,81.82
2022-09-14T11:16:56.801Z,81.76
2022-09-14T11:17:56.786Z,80.05
2022-09-14T11:18:56.794Z,80.25
2022-09-14T11:19:56.762Z,80.65
2022-09-14T11:20:56.753Z,80.55
2022-09-14T11:21:56.752Z,80.55
2022-09-14T11:22:56.741Z,80.85
2022-09-14T11:23:56.731Z,81.02
2022-09-14T11:24:56.708Z,80.96
2022-09-14T11:25:56.704Z,80.82
2022-09-14T11:26:56.689Z,80.85
2022-09-14T11:27:56.670Z,81.32
2022-09-14T11:28:56.678Z,81.42
2022-09-14T11:29:56.657Z,80.01
2022-09-14T11:30:56.682Z,80.01
2022-09-14T11:32:19.215Z,79.61
2022-09-14T11:32:57.615Z,79.50
2022-09-14T11:33:56.640Z,80.01
2022-09-14T11:34:56.591Z,80.41
2022-09-14T11:35:56.576Z,80.51
2022-09-14T11:36:56.583Z,81.02
2022-09-14T11:37:56.553Z,80.31
2022-09-14T11:38:56.564Z,79.81
2022-09-14T11:39:56.572Z,80.18
2022-09-14T11:40:56.523Z,80.51
2022-09-14T11:41:56.509Z,79.97
2022-09-14T11:42:56.509Z,79.61
2022-09-14T11:43:56.511Z,79.91
2022-09-14T11:44:56.480Z,79.61
2022-09-14T11:45:56.510Z,80.21
2022-09-14T11:47:00.473Z,80.27
2022-09-14T11:47:56.552Z,80.31
2022-09-14T11:48:56.720Z,80.21
2022-09-14T11:49:56.434Z,80.58
2022-09-14T11:50:56.409Z,80.18
2022-09-14T11:51:56.392Z,80.07
2022-09-14T11:52:56.397Z,79.87
2022-09-14T11:53:56.382Z,79.36
2022-09-14T11:54:56.383Z,79.33
2022-09-14T11:55:56.352Z,78.76
2022-09-14T11:56:56.339Z,78.66
2022-09-14T11:57:56.326Z,78.92
2022-09-14T11:58:56.337Z,79.23
2022-09-14T11:59:56.306Z,79.53
2022-09-14T12:00:56.317Z,79.53
2022-09-14T12:01:56.317Z,79.63
2022-09-14T12:02:56.340Z,78.83
2022-09-14T12:03:56.433Z,78.02
2022-09-14T12:04:56.277Z,77.72
2022-09-14T12:05:56.262Z,78.12
2022-09-14T12:06:56.257Z,78.12
2022-09-14T12:07:56.210Z,78.32
2022-09-14T12:08:56.199Z,78.42
2022-09-14T12:09:56.208Z,79.03
2022-09-14T12:10:56.180Z,78.52
2022-09-14T12:11:56.164Z,78.52
2022-09-14T12:12:56.164Z,78.72
2022-09-14T12:13:56.149Z,78.83
2022-09-14T12:14:56.137Z,79.90
2022-09-14T12:15:56.172Z,78.92
2022-09-14T12:16:56.111Z,77.72
2022-09-14T12:17:56.141Z,77.72
2022-09-14T12:18:56.109Z,78.22
2022-09-14T12:19:56.103Z,78.32
2022-09-14T12:20:56.082Z,79.19
2022-09-14T12:21:56.072Z,77.92
2022-09-14T12:22:56.054Z,77.92
2022-09-14T12:23:56.029Z,78.22
2022-09-14T12:24:56.029Z,78.42
2022-09-14T12:25:56.019Z,78.32
2022-09-14T12:26:56.003Z,78.32
2022-09-14T12:27:55.987Z,78.02
2022-09-14T12:28:55.980Z,78.49
2022-09-14T12:29:55.993Z,79.19
2022-09-14T12:30:56.006Z,77.98
2022-09-14T12:31:55.940Z,78.12
2022-09-14T12:32:55.935Z,77.82
2022-09-14T12:33:55.921Z,77.01
2022-09-14T12:34:55.911Z,77.31
2022-09-14T12:35:55.934Z,77.31
2022-09-14T12:36:55.885Z,78.02
2022-09-14T12:37:55.874Z,78.42
2022-09-14T12:38:55.870Z,77.72
2022-09-14T12:39:55.873Z,78.02
2022-09-14T12:40:55.849Z,78.12
2022-09-14T12:41:55.845Z,78.22
2022-09-14T12:42:55.831Z,78.12
2022-09-14T12:43:55.801Z,77.92
2022-09-14T12:44:55.799Z,77.42
2022-09-14T12:45:55.828Z,76.31
2022-09-14T12:46:55.789Z,76.81
2022-09-14T12:47:55.755Z,77.31
2022-09-14T12:48:55.758Z,76.20
2022-09-14T12:49:55.748Z,76.51
2022-09-14T12:50:55.722Z,77.21
2022-09-14T12:51:55.768Z,77.72
2022-09-14T12:52:55.701Z,77.82
2022-09-14T12:53:55.692Z,77.82
2022-09-14T12:54:55.678Z,77.51
2022-09-14T12:55:55.672Z,77.31
2022-09-14T12:56:55.681Z,76.51
2022-09-14T12:57:55.644Z,75.90
2022-09-14T12:58:55.630Z,75.40
2022-09-14T12:59:55.639Z,76.17
2022-09-14T13:00:55.611Z,76.51
2022-09-14T13:01:55.674Z,75.87
2022-09-14T13:02:55.645Z,76.10
2022-09-14T13:03:55.575Z,76.37
2022-09-14T13:04:55.572Z,75.96